Tiempo atmosférico en la estación meteorológica de Valencia De Don Juan, León (788 m.)



Fecha
DESCASC
Temp. máxima en grados centígrados (hora)
DESCASC
Temp. mínima en grados centígrados (hora)
DESCASC
Temp. media en grados centígrados
DESCASC
Racha de viento máxima en m/sg (hora)
DESCASC
Velocidad máxima media en intervalos de 10 minutos(hora)
DESCASC
Precipitaciones diarias en mm
DESCASC
Precipitaciones de 00:00 a 06:00 en mm
DESCASC
Precipitaciones de 06:00 a 12:00 en mm
DESCASC
Precipitaciones de 12:00 a 18:00 en mm
DESCASC
Precipitaciones de 18:00 a 24:00 en mm
DESCASC
16-06-2019 25.4 (18:10) 6.8 (07:00) 16.1 10.56 (02:40) 7.78 (02:40) 0 0 0 0 0
15-06-2019 22.1 (19:40) 8 (06:30) 15.1 9.17 (04:00) 5.83 (04:00) 0 0 0 0 0
14-06-2019 21.5 (15:40) 5.3 (07:00) 13.4 12.5 (17:50) 8.33 (17:50) 0 0 0 0 0
13-06-2019 22.2 (18:10) 4.6 (00:00) 13.4 13.33 (18:30) 7.78 (18:30) 0 0 0 0 0
12-06-2019 19.7 (20:20) 3.8 (00:00) 11.8 8.61 (15:00) 5 (23:20) 0 0 0 0 0
11-06-2019 16 (18:00) 6 (00:00) 11 14.17 (17:30) 10.56 (12:20) 0 0 0 0 0
10-06-2019 20.3 (17:50) 5.9 (00:00) 13.1 10.56 (20:10) 7.5 (20:10) 0 0 0 0 0
09-06-2019 21 (16:40) 8.1 (00:00) 14.6 9.72 (21:10) 7.5 (21:20) 0 0 0 0 0
08-06-2019 21.8 (17:30) 3.6 (00:00) 12.7 8.06 (23:20) 6.11 (23:20) 0 0 0 0 0
07-06-2019 16.9 (16:20) 5.5 (00:00) 11.2 13.61 (20:10) 9.17 (17:50) 0 0 0 0 0
06-06-2019 19 (16:30) 5 (00:00) 12 20.83 (18:40) 12.22 (18:50) 3 0 0 0 3
05-06-2019 16.8 (16:50) 6.9 (00:00) 11.8 14.17 (13:00) 9.44 (19:00) 0 0 0 0 0
04-06-2019 21.2 (14:10) 11.3 (00:00) 16.3 14.72 (16:00) 10.28 (15:40) 0 0 0 0 0
03-06-2019 27.6 (16:20) 15.6 (00:00) 21.6 13.06 (18:10) 9.17 (19:10) 0 0 0 0 0
02-06-2019 29.1 (16:00) 13.5 (00:00) 21.3 13.61 (18:00) 9.72 (18:00) 0 0 0 0 0
01-06-2019 32 (18:00) 11.6 (00:00) 21.8 8.89 (14:40) 6.11 (17:30) 0 0 0 0 0
31-05-2019 30 (19:40) 10.1 (00:00) 20.1 6.94 (16:00) 5 (00:20) 0 0 0 0 0
30-05-2019 28.1 (19:10) 8 (00:00) 18.1 10.28 (00:20) 6.67 (00:10) 0 0 0 0 0
29-05-2019 24.2 (18:50) 6.6 (00:00) 15.4 11.94 (21:20) 9.17 (21:20) 0 0 0 0 0
28-05-2019 20.6 (15:50) 6.9 (00:00) 13.8 14.17 (18:10) 10.83 (18:30) 0 0 0 0 0
27-05-2019 23.5 (16:20) 9.1 (00:00) 16.3 11.94 (20:00) 9.44 (20:50) 0 0 0 0 0
26-05-2019 26.4 (17:30) 7 (00:00) 16.7 11.11 (18:40) 7.78 (19:50) 0 0 0 0 0
25-05-2019 22.9 (17:40) 6.6 (00:00) 14.7 10.83 (19:50) 7.22 (19:50) 0 0 0 0 0
24-05-2019 18.9 (17:20) 6.4 (00:00) 12.6 13.89 (19:00) 10 (21:20) 0 0 0 0 0
23-05-2019 24 (18:40) 11.3 (00:00) 17.7 12.78 (20:30) 8.89 (19:50) 0 0 0 0 0
22-05-2019 25.4 (18:40) 5.8 (00:00) 15.6 11.67 (00:10) 9.17 (00:20) 0 0 0 0 0
21-05-2019 22.8 (19:40) 7.3 (07:00) 15 12.22 (23:59) 9.72 (23:59) 0 0 0 0 0

Gráficas

Temp. máximas Temp. mínimas Temp. medias Precipitaciones Rachas de viento máximas Velocidades máximas media en intervalos de 10 minutos

Datos horarios

Fecha y hora oficial Temperatura (ºC) Velocidad del viento (km/h) Dirección del viento Racha (km/h) Dirección de racha Precipitación (mm) Presión (hPa) Tendencia (hPa) Humedad (%)
2019-06-19 23:00:00 15.8 13 Noroeste 26 Noroeste 0 -- -- 64
2019-06-19 22:00:00 17.9 14 Noroeste 28 Noroeste 0 -- -- 57
2019-06-19 21:00:00 20.3 19 Oeste 35 Oeste 0 -- -- 43
2019-06-19 20:00:00 21.8 23 Oeste 40 Sudoeste 0 -- -- 42
2019-06-19 19:00:00 22.9 29 Sudoeste 41 Oeste 0 -- -- 40
2019-06-19 18:00:00 23.2 26 Sudoeste 45 Sudoeste 0 -- -- 39
2019-06-19 17:00:00 22.9 26 Sudoeste 44 Sudoeste 0 -- -- 42
2019-06-19 16:00:00 22.3 27 Sudoeste 39 Sudoeste 0 -- -- 44
2019-06-19 15:00:00 21.6 24 Sudoeste 39 Sudoeste 0 -- -- 41
2019-06-19 14:00:00 20.6 23 Sudoeste 38 Oeste 0 -- -- 48
2019-06-19 13:00:00 20.1 22 Sudoeste 38 Sudoeste 0 -- -- 50
2019-06-19 12:00:00 19.3 25 Sudoeste 39 Sudoeste 0 -- -- 53
2019-06-19 11:00:00 18 25 Sudoeste 36 Sudoeste 0 -- -- 63
2019-06-19 10:00:00 16.4 22 Sudoeste 35 Sudoeste 0 -- -- 72
2019-06-19 09:00:00 15.1 15 Sudoeste 22 Sudoeste 0 -- -- 78
2019-06-19 08:00:00 14.1 14 Sur 21 Sur 0 -- -- 84
2019-06-19 07:00:00 13.5 12 Sudoeste 23 Sudoeste 0 -- -- 85
2019-06-19 06:00:00 14 13 Sudoeste 31 Sudoeste 0 -- -- 85
2019-06-19 05:00:00 14.8 21 Sudoeste 28 Sudoeste 0 -- -- 80
2019-06-19 04:00:00 14.7 18 Sudoeste 27 Sudoeste 0 -- -- 79
2019-06-19 03:00:00 14.8 19 Sudoeste 27 Sudoeste 0 -- -- 79
2019-06-19 02:00:00 15.4 17 Sudoeste 33 Sudoeste 0 -- -- 77
2019-06-19 01:00:00 15.5 19 Sudoeste 30 Sudoeste 0 -- -- 76
2019-06-19 00:00:00 16 21 Sudoeste 30 Sudoeste 0 -- -- 76
2019-06-18 23:00:00 16.9 18 Sudoeste 37 Sudoeste 0 -- -- 67
2019-06-18 22:00:00 17.5 17 Sudoeste 32 Oeste 0 -- -- 65
2019-06-18 21:00:00 18.1 21 Oeste 41 Sudoeste 0 -- -- 63
2019-06-18 20:00:00 20 33 Sudoeste 49 Sudoeste 0 -- -- 51
2019-06-18 19:00:00 21.7 32 Sudoeste 56 Sudoeste 0 -- -- 42
2019-06-18 18:00:00 23.1 37 Sudoeste 58 Sudoeste 0 -- -- 39
2019-06-18 17:00:00 22.3 30 Sudoeste 55 Sudoeste 0 -- -- 47
2019-06-18 16:00:00 22.7 34 Sudoeste 54 Sudoeste 0 -- -- 43
2019-06-18 15:00:00 23.2 34 Sudoeste 57 Sudoeste 0 -- -- 38
2019-06-18 14:00:00 24.5 27 Sudoeste 49 Sudoeste 0 -- -- 30
2019-06-18 13:00:00 23.2 27 Sudoeste 48 Sur 0 -- -- 33
2019-06-18 12:00:00 21.8 23 Sur 36 Sudoeste 0 -- -- 29
2019-06-18 11:00:00 19.9 24 Sudoeste 35 Sudoeste 0 -- -- 28
2019-06-18 10:00:00 18.3 25 Sudoeste 39 Sudoeste 0 -- -- 33
2019-06-18 09:00:00 17.4 12 Sur 18 Sur 0 -- -- 43
2019-06-18 08:00:00 14.1 4 Este 7 Este 0 -- -- 56
2019-06-18 07:00:00 11.5 5 Norte 8 Sudeste 0 -- -- 58
2019-06-18 06:00:00 12.4 6 Sur 18 Sur 0 -- -- 57
2019-06-18 05:00:00 13.1 6 Sudoeste 13 Sudoeste 0 -- -- 57
2019-06-18 04:00:00 14.5 5 Norte 17 Este 0 -- -- 47
2019-06-18 03:00:00 15.2 14 Este 20 Este 0 -- -- 45
2019-06-18 02:00:00 16.2 13 Este 17 Este 0 -- -- 45
2019-06-18 01:00:00 18.1 12 Este 18 Oeste 0 -- -- 43
2019-06-18 00:00:00 18.7 12 Oeste 18 Sudoeste 0 -- -- 36
2019-06-17 23:00:00 19.8 13 Sudoeste 28 Sudoeste 0 -- -- 33
2019-06-17 22:00:00 20 15 Oeste 22 Oeste 0 -- -- 32
2019-06-17 21:00:00 21 18 Sudoeste 25 Sudoeste 0 -- -- 32
2019-06-17 20:00:00 21.7 13 Oeste 27 Oeste 0 -- -- 29
2019-06-17 19:00:00 22.4 19 Oeste 28 Oeste 0 -- -- 25
2019-06-17 18:00:00 23.3 22 Oeste 34 Oeste 0 -- -- 24
2019-06-17 17:00:00 26 15 Sudoeste 38 Sur 0 -- -- 20
2019-06-17 16:00:00 26.7 22 Sudoeste 43 Sur 0 -- -- 20
2019-06-17 15:00:00 26.5 22 Sur 38 Sur 0 -- -- 23
2019-06-17 14:00:00 25.1 23 Sur 37 Sur 0 -- -- 26
2019-06-17 13:00:00 24 22 Sudoeste 36 Sudoeste 0 -- -- 28
2019-06-17 12:00:00 22.7 15 Sudoeste 26 Sudoeste 0 -- -- 41
2019-06-17 11:00:00 20.5 9 Sur 14 Sur 0 -- -- 49
2019-06-17 10:00:00 17.7 4 Norte 9 Norte 0 -- -- 59
2019-06-17 09:00:00 14.5 5 Norte 8 Norte 0 -- -- 70
2019-06-17 08:00:00 11.4 5 Norte 8 Norte 0 -- -- 81
2019-06-17 07:00:00 10 5 Nordeste 9 Nordeste 0 -- -- 80
2019-06-17 06:00:00 10 6 Norte 9 Noroeste 0 -- -- 81
2019-06-17 05:00:00 11.4 6 Norte 10 Norte 0 -- -- 74
2019-06-17 04:00:00 12.2 7 Nordeste 12 Norte 0 -- -- 72
2019-06-17 03:00:00 12.7 5 Noroeste 12 Este 0 -- -- 68
2019-06-17 02:00:00 15.2 8 Noroeste 12 Noroeste 0 -- -- 57
2019-06-17 01:00:00 19.3 0 Calma 6 Sudoeste 0 -- -- 36
2019-06-17 00:00:00 20.1 4 Sudoeste 8 Oeste 0 -- -- 33
2019-06-16 23:00:00 20.8 6 Sudoeste 10 Sudoeste 0 -- -- 31
2019-06-16 22:00:00 22 8 Sudoeste 12 Sur 0 -- -- 28
2019-06-16 21:00:00 23.5 8 Sur 12 Sur 0 -- -- 24
2019-06-16 20:00:00 24.7 6 Sur 13 Sudoeste 0 -- -- 22
2019-06-16 19:00:00 24.7 11 Sudoeste 23 Sudoeste 0 -- -- 21
2019-06-16 18:00:00 25.1 13 Sudoeste 25 Sudoeste 0 -- -- 23
2019-06-16 17:00:00 25.1 15 Sudoeste 26 Sudoeste 0 -- -- 22
2019-06-16 16:00:00 24.7 14 Oeste 30 Sudoeste 0 -- -- 30
2019-06-16 15:00:00 23.7 13 Sudoeste 26 Oeste 0 -- -- 29
2019-06-16 14:00:00 22.9 7 Oeste 24 Sudoeste 0 -- -- 32
2019-06-16 13:00:00 21.6 7 Oeste 16 Norte 0 -- -- 34
2019-06-16 12:00:00 19.9 4 Noroeste 9 Nordeste 0 -- -- 44
2019-06-16 11:00:00 17.8 3 Sudeste 13 Sudeste 0 -- -- 51
2019-06-16 10:00:00 14.6 5 Nordeste 11 Nordeste 0 -- -- 63
2019-06-16 09:00:00 11.5 7 Norte 12 Norte 0 -- -- 77
2019-06-16 08:00:00 8.6 8 Norte 12 Norte 0 -- -- 85
2019-06-16 07:00:00 6.8 7 Norte 9 Norte 0 -- -- 88
2019-06-16 06:00:00 7.6 8 Norte 10 Nordeste 0 -- -- 85
2019-06-16 05:00:00 8.4 4 Norte 12 Nordeste 0 -- -- 82
2019-06-16 04:00:00 9.3 8 Norte 30 Este 0 -- -- 81
2019-06-16 03:00:00 10.6 15 Nordeste 38 Sudeste 0 -- -- 77
2019-06-16 02:00:00 11.8 24 Sudeste 31 Sudeste 0 -- -- 73
2019-06-16 01:00:00 12.9 5 Nordeste 18 Noroeste 0 -- -- 65
2019-06-16 00:00:00 15.1 8 Oeste 18 Sudoeste 0 -- -- 55
2019-06-15 23:00:00 17.7 11 Sur 20 Sudeste 0 -- -- 34
2019-06-15 22:00:00 19.1 14 Sudeste 20 Sudeste 0 -- -- 30
2019-06-15 21:00:00 21.7 3 Sur 16 Sudoeste 0 -- -- 28
2019-06-15 20:00:00 21.8 6 Sur 15 Sur 0 -- -- 29
2019-06-15 19:00:00 21.6 7 Sur 17 Sudoeste 0 -- -- 29
2019-06-15 18:00:00 21.6 6 Sudoeste 26 Sur 0 -- -- 29
2019-06-15 17:00:00 20.7 5 Sudoeste 20 Oeste 0 -- -- 33
2019-06-15 16:00:00 19.9 9 Oeste 21 Oeste 0 -- -- 39
2019-06-15 15:00:00 19 11 Oeste 32 Oeste 0 -- -- 35
2019-06-15 14:00:00 17.8 8 Noroeste 23 Sudoeste 0 -- -- 43
2019-06-15 13:00:00 16.4 9 Sudoeste 19 Oeste 0 -- -- 41
2019-06-15 12:00:00 15.7 9 Noroeste 19 Sudoeste 0 -- -- 48
2019-06-15 11:00:00 14.6 9 Oeste 29 Noroeste 0 -- -- 50
2019-06-15 10:00:00 13.1 12 Norte 21 Noroeste 0 -- -- 58
2019-06-15 09:00:00 11.2 16 Norte 21 Noroeste 0 -- -- 65
2019-06-15 08:00:00 9.8 5 Norte 12 Nordeste 0 -- -- 71
2019-06-15 07:00:00 8 6 Nordeste 10 Este 0 -- -- 76
2019-06-15 06:00:00 8.3 8 Norte 20 Noroeste 0 -- -- 76
2019-06-15 05:00:00 9.3 13 Noroeste 30 Noroeste 0 -- -- 72
2019-06-15 04:00:00 10.6 21 Noroeste 33 Noroeste 0 -- -- 68
2019-06-15 03:00:00 11.1 14 Noroeste 22 Noroeste 0 -- -- 65
2019-06-15 02:00:00 11.3 12 Noroeste 27 Noroeste 0 -- -- 63
2019-06-15 01:00:00 12.2 12 Noroeste 23 Norte 0 -- -- 57
2019-06-15 00:00:00 13.3 14 Oeste 29 Oeste 0 -- -- 55
2019-06-14 23:00:00 14.7 19 Oeste 35 Oeste 0 -- -- 48
2019-06-14 22:00:00 16 25 Oeste 36 Oeste 0 -- -- 44
2019-06-14 21:00:00 18.3 19 Oeste 39 Sudoeste 0 -- -- 37
2019-06-14 20:00:00 19.7 26 Sudoeste 36 Sudoeste 0 -- -- 31
2019-06-14 19:00:00 20.8 24 Sudoeste 41 Oeste 0 -- -- 29
2019-06-14 18:00:00 21.1 25 Sudoeste 45 Sudoeste 0 -- -- 32
2019-06-14 17:00:00 20.7 24 Sudoeste 40 Sudoeste 0 -- -- 29
2019-06-14 16:00:00 21.3 19 Sudoeste 35 Sudoeste 0 -- -- 30
2019-06-14 15:00:00 20.6 7 Noroeste 25 Oeste 0 -- -- 38
2019-06-14 14:00:00 19.4 18 Oeste 29 Oeste 0 -- -- 37
2019-06-14 13:00:00 18.1 9 Sur 16 Sur 0 -- -- 44
2019-06-14 12:00:00 16.5 3 Este 12 Norte 0 -- -- 50
2019-06-14 11:00:00 14.1 4 Norte 13 Norte 0 -- -- 55
2019-06-14 10:00:00 12.2 4 Norte 12 Norte 0 -- -- 64
2019-06-14 09:00:00 9.9 8 Norte 14 Norte 0 -- -- 74
2019-06-14 08:00:00 7.1 9 Norte 12 Norte 0 -- -- 83
2019-06-14 07:00:00 5.3 7 Norte 9 Norte 0 -- -- 86
2019-06-14 06:00:00 6.3 6 Nordeste 7 Nordeste 0 -- -- 84
2019-06-14 05:00:00 6.7 3 Nordeste 7 Nordeste 0 -- -- 83
2019-06-14 04:00:00 7.4 6 Nordeste 15 Este 0 -- -- 80
2019-06-14 03:00:00 8.7 8 Nordeste 20 Este 0 -- -- 76
2019-06-14 02:00:00 8.9 6 Norte 13 Norte 0 -- -- 73
2019-06-14 01:00:00 10 11 Nordeste 18 Norte 0 -- -- 69
2019-06-14 00:00:00 11.6 14 Norte 21 Norte 0 -- -- 61
2019-06-13 23:00:00 13.7 17 Noroeste 24 Noroeste 0 -- -- 47
2019-06-13 22:00:00 16.1 14 Noroeste 28 Sudoeste 0 -- -- 42
2019-06-13 21:00:00 18.6 17 Oeste 34 Sudoeste 0 -- -- 29
2019-06-13 20:00:00 20.4 23 Sudoeste 39 Oeste 0 -- -- 26
2019-06-13 19:00:00 21.5 23 Sudoeste 48 Sudoeste 0 -- -- 25
2019-06-13 18:00:00 21.9 25 Sudoeste 42 Sudoeste 0 -- -- 22
2019-06-13 17:00:00 21.8 25 Sudoeste 44 Sudoeste 0 -- -- 23
2019-06-13 16:00:00 20.6 13 Sudoeste 28 Sur 0 -- -- 32
2019-06-13 15:00:00 19.3 15 Sudoeste 32 Sudoeste 0 -- -- 37
2019-06-13 14:00:00 18.3 15 Sudoeste 27 Sudoeste 0 -- -- 37
2019-06-13 13:00:00 17.4 10 Sudoeste 22 Sudoeste 0 -- -- 41
2019-06-13 12:00:00 15.7 6 Sudeste 14 Norte 0 -- -- 50
2019-06-13 11:00:00 13.8 5 Norte 12 Nordeste 0 -- -- 55
2019-06-13 10:00:00 11.7 8 Nordeste 14 Este 0 -- -- 62
2019-06-13 09:00:00 9.6 7 Norte 10 Norte 0 -- -- 69
2019-06-13 08:00:00 6.1 6 Nordeste 11 Nordeste 0 -- -- 81
2019-06-13 07:00:00 4.7 7 Norte 10 Norte 0 -- -- 87
2019-06-13 06:00:00 4.8 6 Norte 9 Nordeste 0 -- -- 84
2019-06-13 05:00:00 5.6 7 Nordeste 9 Nordeste 0 -- -- 81
2019-06-13 04:00:00 6.7 7 Norte 9 Norte 0 -- -- 82
2019-06-13 03:00:00 7.2 9 Nordeste 13 Este 0 -- -- 77
2019-06-13 02:00:00 8.5 13 Este 21 Nordeste 0 -- -- 71
2019-06-13 01:00:00 9.7 17 Nordeste 21 Norte 0 -- -- 69
2019-06-13 00:00:00 10.9 11 Norte 23 Norte 0 -- -- 63
2019-06-12 23:00:00 13.5 15 Noroeste 22 Noroeste 0 -- -- 45
2019-06-12 22:00:00 16.2 11 Oeste 19 Oeste 0 -- -- 34
2019-06-12 21:00:00 19.1 13 Sudoeste 21 Oeste 0 -- -- 24
2019-06-12 20:00:00 19.3 6 Sur 25 Sur 0 -- -- 26
2019-06-12 19:00:00 19 8 Este 23 Sudeste 0 -- -- 29
2019-06-12 18:00:00 18.4 9 Sur 23 Sur 0 -- -- 29
2019-06-12 17:00:00 18.7 13 Sudoeste 23 Oeste 0 -- -- 26
2019-06-12 16:00:00 17.7 10 Sur 26 Sur 0 -- -- 31
2019-06-12 15:00:00 17 12 Oeste 31 Sudoeste 0 -- -- 32
2019-06-12 14:00:00 15.4 9 Oeste 30 Oeste 0 -- -- 34
2019-06-12 13:00:00 14.2 13 Oeste 23 Oeste 0 -- -- 42
2019-06-12 12:00:00 13.2 10 Oeste 22 Oeste 0 -- -- 42
2019-06-12 11:00:00 11.6 9 Noroeste 20 Noroeste 0 -- -- 51
2019-06-12 10:00:00 10.2 11 Noroeste 19 Noroeste 0 -- -- 59
2019-06-12 09:00:00 8 9 Noroeste 13 Noroeste 0 -- -- 68
2019-06-12 08:00:00 5.6 6 Nordeste 11 Noroeste 0 -- -- 76
2019-06-12 07:00:00 4 9 Norte 20 Noroeste 0 -- -- 80
2019-06-12 06:00:00 3.9 12 Norte 16 Norte 0 -- -- 79
2019-06-12 05:00:00 4.1 12 Noroeste 16 Noroeste 0 -- -- 76
2019-06-12 04:00:00 4.8 7 Norte 14 Norte 0 -- -- 73
2019-06-12 03:00:00 5.5 10 Norte 15 Norte 0 -- -- 72
2019-06-12 02:00:00 6.6 15 Norte 24 Norte 0 -- -- 67
2019-06-12 01:00:00 7.1 8 Norte 17 Norte 0 -- -- 66
2019-06-12 00:00:00 7.9 13 Norte 22 Norte 0 -- -- 65
2019-06-11 23:00:00 9.4 16 Norte 30 Norte 0 -- -- 59
2019-06-11 22:00:00 11 19 Norte 35 Nordeste 0 -- -- 53
2019-06-11 21:00:00 13.2 24 Norte 38 Norte 0 -- -- 45
2019-06-11 20:00:00 14.1 31 Norte 42 Norte 0 -- -- 40
2019-06-11 19:00:00 15.5 29 Norte 44 Norte 0 -- -- 39
2019-06-11 18:00:00 16 28 Norte 51 Norte 0 -- -- 39
2019-06-11 17:00:00 15.2 30 Norte 50 Norte 0 -- -- 36
2019-06-11 16:00:00 15.2 29 Norte 51 Norte 0 -- -- 40
2019-06-11 15:00:00 15.5 34 Norte 48 Norte 0 -- -- 39
2019-06-11 14:00:00 14.3 32 Norte 48 Norte 0 -- -- 40
2019-06-11 13:00:00 13.6 32 Norte 51 Norte 0 -- -- 40
2019-06-11 12:00:00 12.7 35 Norte 47 Norte 0 -- -- 45
2019-06-11 11:00:00 12 27 Norte 42 Norte 0 -- -- 49
2019-06-11 10:00:00 10.8 30 Norte 39 Norte 0 -- -- 53
2019-06-11 09:00:00 9.5 15 Norte 22 Norte 0 -- -- 64
2019-06-11 08:00:00 7.5 14 Noroeste 19 Noroeste 0 -- -- 73
2019-06-11 07:00:00 6.1 10 Noroeste 15 Noroeste 0 -- -- 75
2019-06-11 06:00:00 7 8 Noroeste 12 Noroeste 0 -- -- 71
2019-06-11 05:00:00 8.1 3 Norte 14 Norte 0 -- -- 71
2019-06-11 04:00:00 9 12 Nordeste 22 Nordeste 0 -- -- 68
2019-06-11 03:00:00 10.6 13 Norte 23 Norte 0 -- -- 63
2019-06-11 02:00:00 11 15 Norte 22 Norte 0 -- -- 63
2019-06-11 01:00:00 11.3 16 Norte 28 Norte 0 -- -- 61
2019-06-11 00:00:00 12 18 Norte 27 Norte 0 -- -- 60
2019-06-10 23:00:00 13.3 23 Norte 29 Nordeste 0 -- -- 58
2019-06-10 22:00:00 14.6 18 Nordeste 36 Noroeste 0 -- -- 54
2019-06-10 21:00:00 16.2 23 Noroeste 38 Noroeste 0 -- -- 41
2019-06-10 20:00:00 17.2 23 Noroeste 35 Noroeste 0 -- -- 36
2019-06-10 19:00:00 18.1 23 Noroeste 33 Noroeste 0 -- -- 32
2019-06-10 18:00:00 20.1 14 Sudoeste 29 Oeste 0 -- -- 30
2019-06-10 17:00:00 18.7 13 Sudoeste 24 Sudoeste 0 -- -- 32
2019-06-10 16:00:00 17.9 13 Sudoeste 26 Sudoeste 0 -- -- 33
2019-06-10 15:00:00 17.1 6 Oeste 29 Oeste 0 -- -- 39
2019-06-10 14:00:00 16.7 5 Nordeste 19 Sudoeste 0 -- -- 38
2019-06-10 13:00:00 15.2 9 Sudoeste 29 Oeste 0 -- -- 44
2019-06-10 12:00:00 14.2 6 Oeste 17 Oeste 0 -- -- 51
2019-06-10 11:00:00 12.5 7 Oeste 17 Oeste 0 -- -- 61
2019-06-10 10:00:00 11.2 4 Noroeste 9 Sudoeste 0 -- -- 70
2019-06-10 09:00:00 9 0 Calma 3 Norte 0 -- -- 80
2019-06-10 08:00:00 6.7 0 Calma 6 Norte 0 -- -- 85
2019-06-10 07:00:00 6.2 3 Norte 6 Este 0 -- -- 86
2019-06-10 06:00:00 6.7 3 Sur 5 Sur 0 -- -- 81
2019-06-10 05:00:00 6.8 2 Nordeste 12 Nordeste 0 -- -- 81
2019-06-10 04:00:00 6.9 10 Este 15 Este 0 -- -- 82
2019-06-10 03:00:00 7.8 9 Nordeste 11 Nordeste 0 -- -- 80
2019-06-10 02:00:00 8.7 10 Nordeste 13 Nordeste 0 -- -- 77
2019-06-10 01:00:00 9.6 10 Nordeste 18 Norte 0 -- -- 73
2019-06-10 00:00:00 11.2 15 Norte 27 Norte 0 -- -- 66
2019-06-09 23:00:00 12.5 21 Norte 33 Norte 0 -- -- 61
2019-06-09 22:00:00 14.1 21 Norte 35 Norte 0 -- -- 57
2019-06-09 21:00:00 16.6 26 Norte 35 Norte 0 -- -- 53
2019-06-09 20:00:00 18.3 21 Norte 29 Norte 0 -- -- 46
2019-06-09 19:00:00 18.7 21 Noroeste 31 Noroeste 0 -- -- 40
2019-06-09 18:00:00 19.9 18 Noroeste 33 Noroeste 0 -- -- 37
2019-06-09 17:00:00 20.8 6 Noroeste 18 Oeste 0 -- -- 40
2019-06-09 16:00:00 20.3 6 Nordeste 19 Noroeste 0 -- -- 45
2019-06-09 15:00:00 20.1 8 Oeste 24 Sudoeste 0 -- -- 41
2019-06-09 14:00:00 18.6 11 Sudoeste 23 Sudoeste 0 -- -- 44
2019-06-09 13:00:00 17.7 6 Noroeste 28 Oeste 0 -- -- 51
2019-06-09 12:00:00 16.6 11 Oeste 20 Oeste 0 -- -- 59
2019-06-09 11:00:00 14.9 2 Nordeste 7 Nordeste 0 -- -- 62
2019-06-09 10:00:00 13.4 0 Calma 8 Noroeste 0 -- -- 68
2019-06-09 09:00:00 11.6 0 Calma 6 Este 0 -- -- 79
2019-06-09 08:00:00 9.1 5 Este 6 Este 0 -- -- 83
2019-06-09 07:00:00 8.1 4 Norte 8 Noroeste 0 -- -- 82
2019-06-09 06:00:00 8.9 4 Norte 7 Norte 0 -- -- 80
2019-06-09 05:00:00 9.2 3 Norte 14 Este 0 -- -- 77
2019-06-09 04:00:00 10.3 8 Sudeste 13 Este 0 -- -- 73
2019-06-09 03:00:00 11.3 12 Este 14 Este 0 -- -- 69
2019-06-09 02:00:00 12.5 5 Nordeste 15 Nordeste 0 -- -- 66
2019-06-09 01:00:00 13.6 6 Norte 19 Nordeste 0 -- -- 67
2019-06-09 00:00:00 14.9 15 Nordeste 29 Norte 0 -- -- 62
2019-06-08 23:00:00 16.3 17 Norte 24 Norte 0 -- -- 49
2019-06-08 22:00:00 18.4 0 Calma -- -- 0 -- -- 33
2019-06-08 21:00:00 18.9 6 Noroeste 12 Noroeste 0 -- -- 32
2019-06-08 20:00:00 20 5 Noroeste 16 Noroeste 0 -- -- 31
2019-06-08 19:00:00 20.6 10 Oeste 24 Sudoeste 0 -- -- 28
2019-06-08 18:00:00 21.2 15 Sudoeste 27 Sudoeste 0 -- -- 26
2019-06-08 17:00:00 21.5 6 Norte 27 Sudoeste 0 -- -- 29
2019-06-08 16:00:00 20.4 10 Sur 24 Sudoeste 0 -- -- 29
2019-06-08 15:00:00 19.5 9 Sudeste 20 Sudeste 0 -- -- 30
2019-06-08 14:00:00 18.3 8 Sur 19 Sudoeste 0 -- -- 37
2019-06-08 13:00:00 16.6 9 Este 22 Este 0 -- -- 39
2019-06-08 12:00:00 15.5 7 Nordeste 28 Este 0 -- -- 47
2019-06-08 11:00:00 13.5 8 Sudeste 17 Este 0 -- -- 54
2019-06-08 10:00:00 10.6 10 Este 17 Este 0 -- -- 69
2019-06-08 09:00:00 8.1 6 Norte 10 Nordeste 0 -- -- 80
2019-06-08 08:00:00 4.6 5 Nordeste 11 Norte 0 -- -- 88
2019-06-08 07:00:00 3.7 8 Norte 11 Norte 0 -- -- 89
2019-06-08 06:00:00 3.9 5 Norte 13 Nordeste 0 -- -- 87
2019-06-08 05:00:00 4.5 6 Nordeste 12 Nordeste 0 -- -- 83
2019-06-08 04:00:00 5.1 7 Nordeste 14 Norte 0 -- -- 81
2019-06-08 03:00:00 5.6 10 Nordeste 12 Nordeste 0 -- -- 79
2019-06-08 02:00:00 6.6 10 Norte 15 Noroeste 0 -- -- 76
2019-06-08 01:00:00 7.5 12 Noroeste 18 Noroeste 0 -- -- 75
2019-06-08 00:00:00 8.4 12 Noroeste 23 Noroeste 0 -- -- 69
2019-06-07 23:00:00 9.4 15 Noroeste 22 Noroeste 0 -- -- 63
2019-06-07 22:00:00 10.7 15 Noroeste 34 Noroeste 0 -- -- 54
2019-06-07 21:00:00 12.5 27 Noroeste 49 Noroeste 0 -- -- 49
2019-06-07 20:00:00 14.3 15 Noroeste 35 Norte 0 -- -- 41
2019-06-07 19:00:00 15.8 19 Noroeste 40 Noroeste 0 -- -- 46
2019-06-07 18:00:00 15.7 33 Noroeste 44 Noroeste 0 -- -- 45
2019-06-07 17:00:00 15.8 14 Oeste 36 Oeste 0 -- -- 33
2019-06-07 16:00:00 16.4 14 Noroeste 35 Oeste 0 -- -- 43
2019-06-07 15:00:00 14.7 18 Noroeste 37 Noroeste 0 -- -- 41
2019-06-07 14:00:00 13.7 21 Noroeste 40 Oeste 0 -- -- 46
2019-06-07 13:00:00 13 23 Oeste 42 Noroeste 0 -- -- 52
2019-06-07 12:00:00 11.8 22 Oeste 36 Noroeste 0 -- -- 54
2019-06-07 11:00:00 10.3 28 Oeste 42 Oeste 0 -- -- 59
2019-06-07 10:00:00 9.1 28 Oeste 42 Oeste 0 -- -- 64
2019-06-07 09:00:00 8.1 12 Oeste 22 Oeste 0 -- -- 72
2019-06-07 08:00:00 6.1 13 Sudoeste 22 Sudoeste 0 -- -- 83
2019-06-07 07:00:00 5.5 12 Sudoeste 21 Oeste 0 -- -- 87
2019-06-07 06:00:00 6.2 19 Oeste 29 Sudoeste 0 -- -- 85
2019-06-07 05:00:00 6.3 22 Sudoeste 35 Sudoeste 0 -- -- 85
2019-06-07 04:00:00 6.6 25 Sudoeste 34 Sudoeste 0 -- -- 85
2019-06-07 03:00:00 6.8 23 Sudoeste 39 Sudoeste 0 -- -- 84
2019-06-07 02:00:00 7.1 21 Sudoeste 42 Sudoeste 0 -- -- 84
2019-06-07 01:00:00 7.7 28 Sudoeste 41 Sudoeste 0 -- -- 82
2019-06-07 00:00:00 8.5 28 Sudoeste 44 Sudoeste 0.2 -- -- 83
2019-06-06 23:00:00 8.9 25 Sudoeste 46 Sudoeste 0 -- -- 78
2019-06-06 22:00:00 9.9 31 Sudoeste 53 Oeste 1.8 -- -- 76
2019-06-06 21:00:00 12.4 31 Sudoeste 49 Sudoeste 0.2 -- -- 80
2019-06-06 20:00:00 12.3 24 Sudoeste 54 Sudoeste 0.8 -- -- 81
2019-06-06 19:00:00 15 41 Sudoeste 75 Sudoeste 0 -- -- 62
2019-06-06 18:00:00 17.6 38 Sudoeste 60 Sur 0 -- -- 40
2019-06-06 17:00:00 18.4 40 Sudoeste 60 Sudoeste 0 -- -- 34
2019-06-06 16:00:00 18.2 38 Sudoeste 64 Sur 0 -- -- 32
2019-06-06 15:00:00 16.4 30 Sudoeste 51 Sudoeste 0 -- -- 35
2019-06-06 14:00:00 16 26 Sudoeste 46 Sudoeste 0 -- -- 40
2019-06-06 13:00:00 14.7 24 Sur 38 Sur 0 -- -- 41
2019-06-06 12:00:00 13 22 Sur 37 Sur 0 -- -- 46
2019-06-06 11:00:00 12 19 Sudoeste 30 Sudoeste 0 -- -- 51
2019-06-06 10:00:00 9.8 11 Sur 18 Sur 0 -- -- 63
2019-06-06 09:00:00 8 6 Sur 11 Sur 0 -- -- 73
2019-06-06 08:00:00 6.1 5 Sur 8 Sudoeste 0 -- -- 79
2019-06-06 07:00:00 5.1 3 Nordeste 5 Nordeste 0 -- -- 81
2019-06-06 06:00:00 6 0 Calma 4 Nordeste 0 -- -- 77
2019-06-06 05:00:00 6.1 3 Nordeste 13 Norte 0 -- -- 79
2019-06-06 04:00:00 6.3 10 Norte 15 Norte 0 -- -- 78
2019-06-06 03:00:00 7.3 13 Norte 23 Noroeste 0 -- -- 73
2019-06-06 02:00:00 8.8 11 Noroeste 19 Noroeste 0 -- -- 63
2019-06-06 01:00:00 9.3 11 Norte 21 Noroeste 0 -- -- 61
2019-06-06 00:00:00 9.5 15 Noroeste 30 Noroeste 0 -- -- 60
2019-06-05 23:00:00 9.9 16 Noroeste 35 Noroeste 0 -- -- 58
2019-06-05 22:00:00 10.2 23 Noroeste 44 Noroeste 0 -- -- 57
2019-06-05 21:00:00 12.6 22 Noroeste 35 Noroeste 0 -- -- 37
2019-06-05 20:00:00 13.6 20 Noroeste 44 Noroeste 0 -- -- 40
2019-06-05 19:00:00 14.9 34 Noroeste 49 Noroeste 0 -- -- 42
2019-06-05 18:00:00 15.6 27 Noroeste 45 Noroeste 0 -- -- 39
2019-06-05 17:00:00 16.7 27 Oeste 46 Oeste 0 -- -- 33
2019-06-05 16:00:00 16.3 28 Noroeste 43 Oeste 0 -- -- 38
2019-06-05 15:00:00 16.1 25 Oeste 45 Noroeste 0 -- -- 38
2019-06-05 14:00:00 15 33 Noroeste 49 Oeste 0 -- -- 42
2019-06-05 13:00:00 13.6 21 Oeste 51 Oeste 0 -- -- 49
2019-06-05 12:00:00 13.2 27 Noroeste 43 Oeste 0 -- -- 48
2019-06-05 11:00:00 12.8 25 Noroeste 38 Oeste 0 -- -- 51
2019-06-05 10:00:00 11.3 30 Noroeste 41 Noroeste 0 -- -- 61
2019-06-05 09:00:00 9.2 24 Noroeste 37 Noroeste 0 -- -- 71
2019-06-05 08:00:00 8 18 Noroeste 26 Noroeste 0 -- -- 76
2019-06-05 07:00:00 6.9 13 Noroeste 27 Noroeste 0 -- -- 78
2019-06-05 06:00:00 8.1 21 Noroeste 31 Noroeste 0 -- -- 73
2019-06-05 05:00:00 8.6 13 Noroeste 21 Noroeste 0 -- -- 75
2019-06-05 04:00:00 7.9 11 Noroeste 23 Noroeste 0 -- -- 79
2019-06-05 03:00:00 8.6 17 Noroeste 26 Norte 0 -- -- 74
2019-06-05 02:00:00 9.9 24 Noroeste 35 Noroeste 0 -- -- 67
2019-06-05 01:00:00 11.1 21 Noroeste 40 Noroeste 0 -- -- 65
2019-06-05 00:00:00 11.7 24 Noroeste 39 Oeste 0 -- -- 60
2019-06-04 23:00:00 13.1 21 Noroeste 32 Noroeste 0 -- -- 56
2019-06-04 22:00:00 15.3 14 Noroeste 30 Noroeste 0 -- -- 44
2019-06-04 21:00:00 17.1 19 Noroeste 28 Noroeste 0 -- -- 40
2019-06-04 20:00:00 17.7 21 Noroeste 28 Oeste 0 -- -- 44
2019-06-04 19:00:00 17.6 18 Noroeste 30 Noroeste 0 -- -- 50
2019-06-04 18:00:00 17.1 22 Noroeste 34 Noroeste 0 -- -- 54
2019-06-04 17:00:00 18.2 25 Noroeste 51 Sudoeste 0 -- -- 52
2019-06-04 16:00:00 20.4 34 Sudoeste 53 Sudoeste 0 -- -- 50
2019-06-04 15:00:00 20.4 35 Sudoeste 52 Sudoeste 0 -- -- 47
2019-06-04 14:00:00 20.5 26 Sudoeste 42 Sudoeste 0 -- -- 46
2019-06-04 13:00:00 19.3 16 Sudoeste 25 Sudoeste 0 -- -- 49
2019-06-04 12:00:00 17.9 9 Sudoeste 21 Sudoeste 0 -- -- 52
2019-06-04 11:00:00 16.1 9 Sudoeste 21 Oeste 0 -- -- 60
2019-06-04 10:00:00 14.5 15 Oeste 29 Oeste 0 -- -- 67
2019-06-04 09:00:00 12.6 18 Sudoeste 27 Sudoeste 0 -- -- 69
2019-06-04 08:00:00 11.6 12 Sudoeste 22 Sudoeste 0 -- -- 75
2019-06-04 07:00:00 11.3 16 Sudoeste 24 Sudoeste 0 -- -- 78
2019-06-04 06:00:00 12.2 16 Sudoeste 25 Sudoeste 0 -- -- 75
2019-06-04 05:00:00 12.9 22 Sudoeste 36 Sudoeste 0 -- -- 74
2019-06-04 04:00:00 14.2 24 Sudoeste 37 Sudoeste 0 -- -- 68
2019-06-04 03:00:00 15.3 22 Sudoeste 31 Sudoeste 0 -- -- 64
2019-06-04 02:00:00 16.7 13 Sudoeste 25 Sudoeste 0 -- -- 59
2019-06-04 01:00:00 18.2 15 Sudoeste 26 Sudoeste 0 -- -- 56
2019-06-04 00:00:00 19.6 22 Sudoeste 34 Oeste 0 -- -- 54
2019-06-03 23:00:00 20.8 17 Oeste 27 Oeste 0 -- -- 52
2019-06-03 22:00:00 22.5 19 Oeste 31 Oeste 0 -- -- 46
2019-06-03 21:00:00 24.1 21 Oeste 43 Sudoeste 0 -- -- 39
2019-06-03 20:00:00 25.5 30 Sudoeste 46 Sudoeste 0 -- -- 35
2019-06-03 19:00:00 26.4 29 Sudoeste 47 Sudoeste 0 -- -- 33
2019-06-03 18:00:00 27.1 32 Sudoeste 46 Sudoeste 0 -- -- 33
2019-06-03 17:00:00 27.3 27 Sudoeste 41 Sudoeste 0 -- -- 34
2019-06-03 16:00:00 27.4 28 Sudoeste 44 Sudoeste 0 -- -- 31
2019-06-03 15:00:00 26.5 15 Sudoeste 31 Sudoeste 0 -- -- 33
2019-06-03 14:00:00 24.9 12 Sudoeste 24 Sur 0 -- -- 38
2019-06-03 13:00:00 23.3 10 Sudoeste 19 Sudoeste 0 -- -- 40
2019-06-03 12:00:00 22.4 12 Sudoeste 22 Oeste 0 -- -- 38
2019-06-03 11:00:00 20.9 5 Oeste 13 Oeste 0 -- -- 43
2019-06-03 10:00:00 18.9 7 Noroeste 14 Noroeste 0 -- -- 50
2019-06-03 09:00:00 17.3 9 Noroeste 12 Noroeste 0 -- -- 58
2019-06-03 08:00:00 16 5 Oeste 10 Oeste 0 -- -- 57
2019-06-03 07:00:00 15.7 0 Calma 9 Norte 0 -- -- 56
2019-06-03 06:00:00 15.9 8 Norte 11 Norte 0 -- -- 55
2019-06-03 05:00:00 16.3 4 Nordeste 10 Sudeste 0 -- -- 51
2019-06-03 04:00:00 17.9 8 Sur 10 Sudoeste 0 -- -- 44
2019-06-03 03:00:00 18.3 6 Sur 9 Oeste 0 -- -- 41
2019-06-03 02:00:00 19.3 4 Oeste 8 Sur 0 -- -- 37
2019-06-03 01:00:00 18.8 4 Nordeste 14 Oeste 0 -- -- 48
2019-06-03 00:00:00 21.2 5 Oeste 14 Oeste 0 -- -- 32
2019-06-02 23:00:00 21.6 9 Oeste 17 Oeste 0 -- -- 30
2019-06-02 22:00:00 22.9 11 Oeste 17 Oeste 0 -- -- 31
2019-06-02 21:00:00 24 15 Oeste 32 Sudoeste 0 -- -- 27
2019-06-02 20:00:00 24.8 21 Sudoeste 36 Sudoeste 0 -- -- 24
2019-06-02 19:00:00 27 30 Oeste 46 Sudoeste 0 -- -- 21
2019-06-02 18:00:00 27.7 35 Sudoeste 49 Sudoeste 0 -- -- 16
2019-06-02 17:00:00 28.1 28 Sudoeste 44 Sudoeste 0 -- -- 14
2019-06-02 16:00:00 29.1 14 Oeste 33 Sudoeste 0 -- -- 19
2019-06-02 15:00:00 27.2 8 Norte 20 Oeste 0 -- -- 18
2019-06-02 14:00:00 27.2 13 Oeste 27 Oeste 0 -- -- 20
2019-06-02 13:00:00 25.6 8 Sudoeste 19 Sudoeste 0 -- -- 33
2019-06-02 12:00:00 24.6 7 Sudoeste 21 Oeste 0 -- -- 32
2019-06-02 11:00:00 22.2 4 Oeste 12 Sudoeste 0 -- -- 41
2019-06-02 10:00:00 19.4 8 Noroeste 13 Noroeste 0 -- -- 53
2019-06-02 09:00:00 16.1 6 Norte 10 Norte 0 -- -- 69
2019-06-02 08:00:00 15 6 Nordeste 10 Nordeste 0 -- -- 70
2019-06-02 07:00:00 13.7 5 Nordeste 9 Nordeste 0 -- -- 74
2019-06-02 06:00:00 14.3 7 Norte 10 Norte 0 -- -- 73
2019-06-02 05:00:00 15.9 7 Nordeste 13 Nordeste 0 -- -- 65
2019-06-02 04:00:00 16.4 8 Nordeste 13 Norte 0 -- -- 61
2019-06-02 03:00:00 17.9 9 Norte 13 Norte 0 -- -- 57
2019-06-02 02:00:00 19.3 10 Norte 12 Norte 0 -- -- 46
2019-06-02 01:00:00 21.2 8 Noroeste 18 Norte 0 -- -- 35
2019-06-02 00:00:00 22.4 14 Norte 28 Noroeste 0 -- -- 36
2019-06-01 23:00:00 24.6 14 Noroeste 26 Noroeste 0 -- -- 34
2019-06-01 22:00:00 26.3 16 Oeste 23 Oeste 0 -- -- 27
2019-06-01 21:00:00 28.1 16 Oeste 27 Sudoeste 0 -- -- 25
2019-06-01 20:00:00 30.5 18 Oeste 27 Oeste 0 -- -- 21
2019-06-01 19:00:00 31.7 15 Sudoeste 26 Sudoeste 0 -- -- 16
2019-06-01 18:00:00 32 14 Sudoeste 31 Sudoeste 0 -- -- 16
2019-06-01 17:00:00 31.5 17 Sudoeste 29 Oeste 0 -- -- 18
2019-06-01 16:00:00 31.4 10 Oeste 25 Sudoeste 0 -- -- 19
2019-06-01 15:00:00 29.7 16 Oeste 32 Oeste 0 -- -- 21
2019-06-01 14:00:00 29.3 8 Noroeste 20 Sudoeste 0 -- -- 24
2019-06-01 13:00:00 27.6 9 Sudoeste 18 Sudoeste 0 -- -- 25
2019-06-01 12:00:00 26.1 4 Oeste 10 Noroeste 0 -- -- 31
2019-06-01 11:00:00 24.1 5 Noroeste 9 Noroeste 0 -- -- 41
2019-06-01 10:00:00 21.2 5 Norte 9 Norte 0 -- -- 49
2019-06-01 09:00:00 16.9 7 Norte 11 Norte 0 -- -- 59
2019-06-01 08:00:00 13 10 Norte 13 Nordeste 0 -- -- 69
2019-06-01 07:00:00 11.6 10 Nordeste 13 Nordeste 0 -- -- 69
2019-06-01 06:00:00 12 6 Norte 9 Nordeste 0 -- -- 67
2019-06-01 05:00:00 13 6 Nordeste 11 Norte 0 -- -- 61
2019-06-01 04:00:00 13.6 8 Norte 14 Norte 0 -- -- 58
2019-06-01 03:00:00 15.1 9 Norte 16 Norte 0 -- -- 55
2019-06-01 02:00:00 19.5 15 Nordeste 26 Este 0 -- -- 38
2019-06-01 01:00:00 19.2 13 Este 28 Este 0 -- -- 34
2019-06-01 00:00:00 20.1 13 Nordeste 21 Norte 0 -- -- 29
2019-05-31 23:00:00 23.6 12 Sudeste 16 Sudeste 0 -- -- 20
2019-05-31 22:00:00 26.8 4 Sudeste 6 Oeste 0 -- -- 16
2019-05-31 21:00:00 29.7 4 Noroeste 8 Sudoeste 0 -- -- 19
2019-05-31 20:00:00 29.8 8 Oeste 15 Oeste 0 -- -- 18
2019-05-31 19:00:00 29.6 5 Norte 20 Noroeste 0 -- -- 16
2019-05-31 18:00:00 29.7 10 Oeste 24 Noroeste 0 -- -- 18
2019-05-31 17:00:00 29.3 8 Norte 22 Norte 0 -- -- 17
2019-05-31 16:00:00 29.2 12 Norte 25 Norte 0 -- -- 20
2019-05-31 15:00:00 28.1 6 Sudoeste 19 Nordeste 0 -- -- 20
2019-05-31 14:00:00 27.1 9 Nordeste 18 Nordeste 0 -- -- 20
2019-05-31 13:00:00 25.5 6 Nordeste 15 Nordeste 0 -- -- 26
2019-05-31 12:00:00 24.1 4 Norte 11 Norte 0 -- -- 30
2019-05-31 11:00:00 21.3 8 Norte 12 Nordeste 0 -- -- 43
2019-05-31 10:00:00 18.4 8 Norte 12 Norte 0 -- -- 55
2019-05-31 09:00:00 14.9 8 Norte 12 Nordeste 0 -- -- 66
2019-05-31 08:00:00 11.5 6 Norte 13 Norte 0 -- -- 75
2019-05-31 07:00:00 10.1 12 Norte 15 Norte 0 -- -- 80
2019-05-31 06:00:00 10.8 13 Norte 15 Norte 0 -- -- 80
2019-05-31 05:00:00 12 10 Norte 14 Nordeste 0 -- -- 77
2019-05-31 04:00:00 13.8 8 Norte 14 Norte 0 -- -- 70
2019-05-31 03:00:00 15 9 Norte 15 Nordeste 0 -- -- 63
2019-05-31 02:00:00 16.7 6 Norte 21 Este 0 -- -- 57
2019-05-31 01:00:00 18.1 12 Este 24 Este 0 -- -- 52
2019-05-31 00:00:00 20.1 17 Este 27 Este 0 -- -- 49
2019-05-30 23:00:00 21.9 23 Este 31 Este 0 -- -- 41
2019-05-30 22:00:00 24.1 17 Este 21 Este 0 -- -- 31
2019-05-30 21:00:00 26.9 10 Sudeste 24 Este 0 -- -- 27
2019-05-30 20:00:00 27.8 9 Este 21 Este 0 -- -- 25
2019-05-30 19:00:00 27.8 10 Este 27 Este 0 -- -- 24
2019-05-30 18:00:00 27.6 13 Nordeste 27 Nordeste 0 -- -- 25
2019-05-30 17:00:00 27.3 11 Este 21 Este 0 -- -- 24
2019-05-30 16:00:00 27.1 9 Noroeste 19 Este 0 -- -- 28
2019-05-30 15:00:00 25.2 6 Noroeste 15 Este 0 -- -- 32
2019-05-30 14:00:00 23.4 5 Nordeste 11 Noroeste 0 -- -- 35
2019-05-30 13:00:00 21.4 4 Nordeste 13 Norte 0 -- -- 42
2019-05-30 12:00:00 19.5 4 Sur 8 Sur 0 -- -- 46
2019-05-30 11:00:00 18.1 5 Norte 13 Nordeste 0 -- -- 53
2019-05-30 10:00:00 16 4 Norte 10 Norte 0 -- -- 59
2019-05-30 09:00:00 13.1 6 Norte 8 Nordeste 0 -- -- 69
2019-05-30 08:00:00 9.9 0 Calma -- -- 0 -- -- 78
2019-05-30 07:00:00 8.1 0 Calma 10 Nordeste 0 -- -- 82
2019-05-30 06:00:00 8.5 9 Nordeste 11 Nordeste 0 -- -- 79
2019-05-30 05:00:00 10.4 5 Norte 8 Norte 0 -- -- 75
2019-05-30 04:00:00 11.5 6 Norte 21 Este 0 -- -- 71
2019-05-30 03:00:00 12.4 5 Noroeste 23 Este 0 -- -- 65
2019-05-30 02:00:00 12.9 5 Este 22 Sudeste 0 -- -- 58
2019-05-30 01:00:00 14.5 19 Sudeste 37 Sudeste 0 -- -- 52
2019-05-30 00:00:00 15.8 25 Este 40 Sudeste 0 -- -- 49
2019-05-29 23:00:00 17.2 27 Sudeste 36 Sudeste 0 -- -- 47
2019-05-29 22:00:00 19.3 26 Sudeste 43 Sudeste 0 -- -- 42
2019-05-29 21:00:00 22.5 26 Sudeste 40 Sudeste 0 -- -- 36
2019-05-29 20:00:00 24.1 14 Este 27 Este 0 -- -- 31
2019-05-29 19:00:00 23.9 17 Nordeste 29 Nordeste 0 -- -- 31
2019-05-29 18:00:00 23.4 9 Nordeste 23 Este 0 -- -- 31
2019-05-29 17:00:00 22.7 10 Nordeste 23 Nordeste 0 -- -- 33
2019-05-29 16:00:00 21.4 10 Nordeste 24 Este 0 -- -- 35
2019-05-29 15:00:00 20.4 7 Este 24 Este 0 -- -- 37
2019-05-29 14:00:00 18.7 5 Oeste 23 Sur 0 -- -- 40
2019-05-29 13:00:00 17.6 6 Sur 15 Nordeste 0 -- -- 45
2019-05-29 12:00:00 15.3 5 Sudeste 14 Oeste 0 -- -- 50
2019-05-29 11:00:00 13.1 4 Sudeste 12 Sur 0 -- -- 54
2019-05-29 10:00:00 11.3 5 Sudoeste 12 Sudoeste 0 -- -- 60
2019-05-29 09:00:00 9.8 4 Sudoeste 8 Sudoeste 0 -- -- 66
2019-05-29 08:00:00 8.1 2 Sur 7 Sudoeste 0 -- -- 74
2019-05-29 07:00:00 6.9 6 Sudoeste 8 Sudoeste 0 -- -- 76
2019-05-29 06:00:00 6.9 0 Calma 7 Sudoeste 0 -- -- 75
2019-05-29 05:00:00 7.5 6 Este 9 Este 0 -- -- 71
2019-05-29 04:00:00 8 8 Este 10 Este 0 -- -- 68
2019-05-29 03:00:00 8.8 9 Nordeste 16 Nordeste 0 -- -- 63
2019-05-29 02:00:00 9.3 6 Norte 12 Nordeste 0 -- -- 65
2019-05-29 01:00:00 10.6 5 Este 26 Nordeste 0 -- -- 56
2019-05-29 00:00:00 11.1 10 Este 25 Norte 0 -- -- 56
2019-05-28 23:00:00 12.3 17 Norte 38 Norte 0 -- -- 53
2019-05-28 22:00:00 14.1 28 Norte 45 Norte 0 -- -- 46
2019-05-28 21:00:00 16.3 33 Norte 44 Norte 0 -- -- 41
2019-05-28 20:00:00 18.2 33 Nordeste 49 Norte 0 -- -- 35
2019-05-28 19:00:00 18.9 33 Norte 51 Norte 0 -- -- 35
2019-05-28 18:00:00 19.6 35 Norte 48 Norte 0 -- -- 33
2019-05-28 17:00:00 20.3 30 Norte 48 Norte 0 -- -- 30
2019-05-28 16:00:00 20.4 27 Norte 39 Norte 0 -- -- 31
2019-05-28 15:00:00 19.6 26 Norte 42 Norte 0 -- -- 28
2019-05-28 14:00:00 19.1 18 Norte 31 Norte 0 -- -- 31
2019-05-28 13:00:00 16.7 14 Nordeste 22 Noroeste 0 -- -- 38
2019-05-28 12:00:00 15.2 13 Norte 23 Norte 0 -- -- 42
2019-05-28 11:00:00 13.2 12 Norte 21 Norte 0 -- -- 47
2019-05-28 10:00:00 11.9 7 Nordeste 13 Nordeste 0 -- -- 54
2019-05-28 09:00:00 10.8 4 Norte 9 Norte 0 -- -- 68
2019-05-28 08:00:00 8.4 4 Norte 6 Norte 0 -- -- 81
2019-05-28 07:00:00 6.9 0 Calma 13 Este 0 -- -- 80
2019-05-28 06:00:00 7.4 9 Este 13 Este 0 -- -- 80
2019-05-28 05:00:00 7.6 2 Sur 14 Este 0 -- -- 80
2019-05-28 04:00:00 8.3 13 Este 17 Este 0 -- -- 73
2019-05-28 03:00:00 8.9 15 Este 18 Este 0 -- -- 63
2019-05-28 02:00:00 8.5 13 Nordeste 18 Nordeste 0 -- -- 65
2019-05-28 01:00:00 9.6 14 Nordeste 22 Nordeste 0 -- -- 63
2019-05-28 00:00:00 11.6 17 Nordeste 29 Nordeste 0 -- -- 57
2019-05-27 23:00:00 13.3 21 Nordeste 37 Nordeste 0 -- -- 52
2019-05-27 22:00:00 15.1 25 Nordeste 39 Nordeste 0 -- -- 50
2019-05-27 21:00:00 17.3 31 Nordeste 42 Nordeste 0 -- -- 44
2019-05-27 20:00:00 20 31 Norte 43 Norte 0 -- -- 40
2019-05-27 19:00:00 22.4 23 Norte 33 Norte 0 -- -- 36
2019-05-27 18:00:00 22.6 23 Norte 36 Norte 0 -- -- 35
2019-05-27 17:00:00 22.7 19 Nordeste 41 Norte 0 -- -- 38
2019-05-27 16:00:00 23.3 18 Noroeste 36 Norte 0 -- -- 36
2019-05-27 15:00:00 22.7 10 Norte 25 Norte 0 -- -- 40
2019-05-27 14:00:00 21.7 15 Oeste 28 Oeste 0 -- -- 47
2019-05-27 13:00:00 20.1 10 Norte 19 Noroeste 0 -- -- 50
2019-05-27 12:00:00 19 3 Norte 14 Sudoeste 0 -- -- 51
2019-05-27 11:00:00 17 3 Este 14 Noroeste 0 -- -- 57
2019-05-27 10:00:00 14.6 7 Oeste 12 Oeste 0 -- -- 67
2019-05-27 09:00:00 13.1 7 Sur 10 Sur 0 -- -- 71
2019-05-27 08:00:00 11 3 Sur 12 Sur 0 -- -- 75
2019-05-27 07:00:00 9.1 7 Sur 10 Sur 0 -- -- 82
2019-05-27 06:00:00 10 3 Sur 14 Sudeste 0 -- -- 78
2019-05-27 05:00:00 10.5 12 Sudeste 14 Sudeste 0 -- -- 77
2019-05-27 04:00:00 11.6 0 Calma 21 Sudeste 0 -- -- 73
2019-05-27 03:00:00 12.2 18 Sudeste 26 Sudeste 0 -- -- 72
2019-05-27 02:00:00 13.1 22 Sudeste 25 Sudeste 0 -- -- 67
2019-05-27 01:00:00 14.2 14 Sudeste 24 Sudeste 0 -- -- 62
2019-05-27 00:00:00 15.4 10 Este 21 Este 0 -- -- 59
2019-05-26 23:00:00 17.2 12 Nordeste 21 Este 0 -- -- 48
2019-05-26 22:00:00 18.7 14 Este 31 Norte 0 -- -- 47
2019-05-26 21:00:00 22.3 23 Norte 34 Norte 0 -- -- 38
2019-05-26 20:00:00 24.2 27 Norte 36 Norte 0 -- -- 34
2019-05-26 19:00:00 25.3 22 Norte 40 Norte 0 -- -- 32
2019-05-26 18:00:00 26.2 20 Norte 36 Norte 0 -- -- 31
2019-05-26 17:00:00 26.1 7 Noroeste 18 Norte 0 -- -- 30
2019-05-26 16:00:00 24.3 9 Norte 19 Nordeste 0 -- -- 34
2019-05-26 15:00:00 22.8 5 Norte 13 Nordeste 0 -- -- 39
2019-05-26 14:00:00 20.7 6 Nordeste 14 Oeste 0 -- -- 41
2019-05-26 13:00:00 18.2 8 Sur 17 Oeste 0 -- -- 50
2019-05-26 12:00:00 15.7 10 Sudoeste 18 Oeste 0 -- -- 56
2019-05-26 11:00:00 13.9 4 Norte 17 Oeste 0 -- -- 63
2019-05-26 10:00:00 11.8 5 Sur 9 Sudeste 0 -- -- 67
2019-05-26 09:00:00 9.6 4 Sudoeste 9 Sudoeste 0 -- -- 75
2019-05-26 08:00:00 8.1 4 Sudoeste 7 Sudoeste 0 -- -- 79
2019-05-26 07:00:00 7 5 Sudoeste 6 Sudoeste 0 -- -- 80
2019-05-26 06:00:00 7.5 4 Sudoeste 7 Sudoeste 0 -- -- 79
2019-05-26 05:00:00 8 0 Calma 10 Sudeste 0 -- -- 76
2019-05-26 04:00:00 8.4 6 Sur 22 Sudeste 0 -- -- 73
2019-05-26 03:00:00 9.3 17 Sudeste 25 Sudeste 0 -- -- 69
2019-05-26 02:00:00 10.3 20 Sudeste 26 Este 0 -- -- 64
2019-05-26 01:00:00 11.4 22 Sudeste 30 Este 0 -- -- 60
2019-05-26 00:00:00 12.4 19 Sudeste 29 Este 0 -- -- 57
2019-05-25 23:00:00 14 19 Este 30 Este 0 -- -- 51
2019-05-25 22:00:00 15.9 21 Este 33 Este 0 -- -- 46
2019-05-25 21:00:00 19 25 Este 32 Sudeste 0 -- -- 40
2019-05-25 20:00:00 21.4 25 Este 39 Este 0 -- -- 34
2019-05-25 19:00:00 22.5 20 Norte 36 Norte 0 -- -- 27
2019-05-25 18:00:00 22.8 14 Norte 31 Norte 0 -- -- 27
2019-05-25 17:00:00 22.2 11 Nordeste 25 Este 0 -- -- 26
2019-05-25 16:00:00 21 8 Este 24 Nordeste 0 -- -- 29
2019-05-25 15:00:00 20 13 Este 22 Este 0 -- -- 31
2019-05-25 14:00:00 19.1 13 Nordeste 24 Noroeste 0 -- -- 34
2019-05-25 13:00:00 17.8 11 Nordeste 29 Nordeste 0 -- -- 37
2019-05-25 12:00:00 16.2 8 Noroeste 28 Nordeste 0 -- -- 44
2019-05-25 11:00:00 14.6 16 Nordeste 31 Norte 0 -- -- 48
2019-05-25 10:00:00 13 21 Norte 27 Norte 0 -- -- 55
2019-05-25 09:00:00 11.2 10 Nordeste 15 Nordeste 0 -- -- 64
2019-05-25 08:00:00 9.2 3 Sudeste 9 Nordeste 0 -- -- 68
2019-05-25 07:00:00 6.6 6 Sur 15 Norte 0 -- -- 76
2019-05-25 06:00:00 7.5 5 Norte 8 Norte 0 -- -- 74
2019-05-25 05:00:00 8.4 4 Este 7 Nordeste 0 -- -- 72
2019-05-25 04:00:00 8.7 3 Norte 11 Norte 0 -- -- 71
2019-05-25 03:00:00 8.7 9 Nordeste 16 Nordeste 0 -- -- 70
2019-05-25 02:00:00 8.7 6 Este 17 Nordeste 0 -- -- 70
2019-05-25 01:00:00 10 15 Nordeste 19 Nordeste 0 -- -- 66
2019-05-25 00:00:00 10.8 14 Nordeste 26 Nordeste 0 -- -- 63
2019-05-24 23:00:00 12.7 20 Nordeste 36 Nordeste 0 -- -- 56
2019-05-24 22:00:00 13.7 30 Nordeste 45 Nordeste 0 -- -- 49
2019-05-24 21:00:00 15.3 33 Nordeste 43 Nordeste 0 -- -- 43
2019-05-24 20:00:00 17.2 30 Norte 44 Nordeste 0 -- -- 40
2019-05-24 19:00:00 17.4 33 Norte 50 Norte 0 -- -- 35
2019-05-24 18:00:00 18.4 29 Norte 47 Nordeste 0 -- -- 36
2019-05-24 17:00:00 18.7 26 Norte 40 Nordeste 0 -- -- 37
2019-05-24 16:00:00 18.2 24 Norte 38 Norte 0 -- -- 41
2019-05-24 15:00:00 17.9 23 Norte 41 Norte 0 -- -- 44
2019-05-24 14:00:00 17.4 21 Norte 40 Norte 0 -- -- 44
2019-05-24 13:00:00 15.5 19 Nordeste 42 Norte 0 -- -- 43
2019-05-24 12:00:00 14.8 22 Nordeste 33 Norte 0 -- -- 48
2019-05-24 11:00:00 13.3 25 Norte 37 Nordeste 0 -- -- 47
2019-05-24 10:00:00 11.6 20 Norte 26 Norte 0 -- -- 56
2019-05-24 09:00:00 9.4 15 Norte 18 Norte 0 -- -- 64
2019-05-24 08:00:00 7.5 10 Norte 18 Nordeste 0 -- -- 77
2019-05-24 07:00:00 6.5 14 Norte 21 Norte 0 -- -- 77
2019-05-24 06:00:00 7 11 Norte 14 Norte 0 -- -- 81
2019-05-24 05:00:00 8 10 Norte 15 Norte 0 -- -- 80
2019-05-24 04:00:00 9.7 12 Norte 15 Norte 0 -- -- 76
2019-05-24 03:00:00 10.9 11 Norte 22 Norte 0 -- -- 72
2019-05-24 02:00:00 11.8 17 Norte 22 Nordeste 0 -- -- 67
2019-05-24 01:00:00 12.4 20 Norte 27 Norte 0 -- -- 66
2019-05-24 00:00:00 13.4 15 Norte 29 Norte 0 -- -- 63
2019-05-23 23:00:00 15.2 23 Norte 32 Norte 0 -- -- 59
2019-05-23 22:00:00 16.5 22 Norte 38 Norte 0 -- -- 60
2019-05-23 21:00:00 18.3 28 Norte 46 Noroeste 0 -- -- 54
2019-05-23 20:00:00 20.9 32 Noroeste 44 Noroeste 0 -- -- 40
2019-05-23 19:00:00 23.6 14 Noroeste 25 Oeste 0 -- -- 34
2019-05-23 18:00:00 23.8 12 Noroeste 21 Noroeste 0 -- -- 36
2019-05-23 17:00:00 23.5 5 Oeste 19 Sudoeste 0 -- -- 36
2019-05-23 16:00:00 22.7 6 Noroeste 22 Oeste 0 -- -- 42
2019-05-23 15:00:00 22.3 9 Oeste 22 Oeste 0 -- -- 44
2019-05-23 14:00:00 20.4 10 Nordeste 19 Noroeste 0 -- -- 50
2019-05-23 13:00:00 19 4 Nordeste 11 Norte 0 -- -- 52
2019-05-23 12:00:00 17.4 8 Norte 14 Noroeste 0 -- -- 57
2019-05-23 11:00:00 16.2 4 Norte 14 Noroeste 0 -- -- 57
2019-05-23 10:00:00 14.5 13 Noroeste 16 Noroeste 0 -- -- 72
2019-05-23 09:00:00 13.3 4 Norte 8 Nordeste 0 -- -- 77
2019-05-23 08:00:00 11.7 4 Nordeste 8 Nordeste 0 -- -- 80
2019-05-23 07:00:00 11.3 7 Norte 10 Nordeste 0 -- -- 81
2019-05-23 06:00:00 12.7 8 Nordeste 16 Nordeste 0 -- -- 74
2019-05-23 05:00:00 11.6 10 Nordeste 14 Este 0 -- -- 81
2019-05-23 04:00:00 12.6 5 Nordeste 18 Nordeste 0 -- -- 76
2019-05-23 03:00:00 14 13 Norte 18 Norte 0 -- -- 74
2019-05-23 02:00:00 15.1 10 Norte 15 Noroeste 0 -- -- 66
2019-05-23 01:00:00 16 10 Noroeste 18 Noroeste 0 -- -- 56
2019-05-23 00:00:00 18.4 6 Oeste 20 Oeste 0 -- -- 40
2019-05-22 23:00:00 19.4 11 Sudoeste 16 Sudoeste 0 -- -- 39
2019-05-22 22:00:00 21 11 Sudoeste 23 Sudoeste 0 -- -- 34
2019-05-22 21:00:00 22.5 12 Sudoeste 20 Sudoeste 0 -- -- 30
2019-05-22 20:00:00 24.5 10 Sudoeste 22 Oeste 0 -- -- 25
2019-05-22 19:00:00 25.3 8 Sudoeste 27 Sudoeste 0 -- -- 26
2019-05-22 18:00:00 25.1 8 Sudoeste 24 Sudoeste 0 -- -- 27
2019-05-22 17:00:00 24.9 6 Sudoeste 19 Oeste 0 -- -- 27
2019-05-22 16:00:00 23.4 17 Sudoeste 28 Sudoeste 0 -- -- 27
2019-05-22 15:00:00 23.5 15 Oeste 26 Sudoeste 0 -- -- 30
2019-05-22 14:00:00 22 11 Sudoeste 21 Sudoeste 0 -- -- 30
2019-05-22 13:00:00 21 8 Sudoeste 17 Sudoeste 0 -- -- 27
2019-05-22 12:00:00 19.7 5 Sur 16 Este 0 -- -- 27
2019-05-22 11:00:00 17.7 5 Nordeste 18 Este 0 -- -- 30
2019-05-22 10:00:00 14.5 10 Nordeste 14 Nordeste 0 -- -- 40
2019-05-22 09:00:00 11.4 12 Nordeste 18 Nordeste 0 -- -- 58
2019-05-22 08:00:00 7.8 13 Nordeste 19 Nordeste 0 -- -- 77
2019-05-22 07:00:00 5.8 12 Nordeste 17 Nordeste 0 -- -- 79
2019-05-22 06:00:00 6.3 6 Nordeste 12 Nordeste 0 -- -- 77
2019-05-22 05:00:00 7.2 8 Nordeste 9 Nordeste 0 -- -- 74
2019-05-22 04:00:00 8.5 5 Norte 8 Nordeste 0 -- -- 73
2019-05-22 03:00:00 8.9 4 Nordeste 10 Norte 0 -- -- 74
2019-05-22 02:00:00 10.6 8 Norte 27 Norte 0 -- -- 71
2019-05-22 01:00:00 12.4 13 Norte 42 Este 0 -- -- 65
2019-05-22 00:00:00 14.2 35 Este 44 Este 0 -- -- 58
2019-05-21 23:00:00 15.6 27 Este 36 Este 0 -- -- 52
2019-05-21 22:00:00 18.6 12 Este 15 Este 0 -- -- 30
2019-05-21 21:00:00 21.6 3 Norte 13 Oeste 0 -- -- 24
2019-05-21 20:00:00 22.7 6 Oeste 12 Oeste 0 -- -- 25
2019-05-21 19:00:00 22.3 4 Oeste 16 Nordeste 0 -- -- 23
2019-05-21 18:00:00 21.1 2 Noroeste 8 Sudeste 0 -- -- 27
2019-05-21 17:00:00 20.7 9 Nordeste 21 Este 0 -- -- 27
2019-05-21 16:00:00 20.9 8 Sur 24 Este 0 -- -- 27
2019-05-21 15:00:00 21.1 7 Sudeste 27 Sudeste 0 -- -- 28
2019-05-21 14:00:00 19.9 8 Sudeste 19 Sur 0 -- -- 32
2019-05-21 13:00:00 18.4 12 Sudeste 23 Nordeste 0 -- -- 36
2019-05-21 12:00:00 17.3 13 Nordeste 27 Nordeste 0 -- -- 39
2019-05-21 11:00:00 15.5 16 Este 25 Sudeste 0 -- -- 42
2019-05-21 10:00:00 14 15 Este 24 Nordeste 0 -- -- 48
2019-05-21 09:00:00 10.4 10 Norte 15 Norte 0 -- -- 70
2019-05-21 08:00:00 8.1 11 Nordeste 16 Nordeste 0 -- -- 79
2019-05-21 07:00:00 7.3 12 Norte 15 Norte 0 -- -- 83
2019-05-21 06:00:00 8.3 14 Norte 17 Norte 0 -- -- 78
2019-05-21 05:00:00 9.7 11 Nordeste 20 Nordeste 0 -- -- 75
2019-05-21 04:00:00 9.8 15 Nordeste 20 Nordeste 0 -- -- 74
2019-05-21 03:00:00 9.6 5 Norte 22 Este 0 -- -- 75
2019-05-21 02:00:00 10 20 Este 30 Este 0 -- -- 72
2019-05-21 01:00:00 12.3 23 Este 28 Este 0 -- -- 60
2019-05-21 00:00:00 12.9 12 Nordeste 22 Norte 0 -- -- 53